Time;durP1;ratioP1;P1;durP2;ratioP2;P2;SDS_P1;SDS_P2;PMS_P1;PMS_P2;Temp;Humidity;BMP_temperature;BMP_pressure;BME280_temperature;BME280_humidity;BME280_pressure;Samples;Min_cycle;Max_cycle;Signal;HPM_P1;HPM_P2
2023/07/18 00:01:43;;;;;;;4.50;4.00;;;24.70;27.00;;;;;;10433375;28;20282;-76
2023/07/18 00:06:46;;;;;;;5.07;3.70;;;24.50;27.30;;;;;;10430951;28;20241;-75
2023/07/18 00:11:50;;;;;;;4.17;3.50;;;24.40;27.20;;;;;;10428098;28;20229;-76
2023/07/18 00:16:54;;;;;;;3.63;3.33;;;24.20;27.60;;;;;;10429874;28;20237;-75
2023/07/18 00:21:58;;;;;;;3.23;2.97;;;24.10;28.10;;;;;;10428803;28;20600;-75
2023/07/18 00:27:01;;;;;;;3.60;3.30;;;24.10;28.10;;;;;;10424839;28;20236;-75
2023/07/18 00:32:07;;;;;;;3.80;3.43;;;24.00;28.00;;;;;;10460755;28;20232;-75
2023/07/18 00:37:10;;;;;;;3.93;3.63;;;23.90;27.90;;;;;;10466161;28;20716;-75
2023/07/18 00:42:13;;;;;;;3.93;3.63;;;23.80;27.90;;;;;;10474530;28;20243;-76
2023/07/18 00:47:18;;;;;;;3.77;3.33;;;23.70;28.40;;;;;;10473225;28;20319;-75
2023/07/18 00:52:22;;;;;;;5.27;3.60;;;23.60;29.00;;;;;;10466953;28;20240;-75
2023/07/18 00:57:25;;;;;;;3.77;3.47;;;23.60;28.80;;;;;;10467946;28;20834;-76
2023/07/18 01:02:31;;;;;;;5.47;3.87;;;23.60;28.80;;;;;;10463585;28;20232;-75
2023/07/18 01:07:35;;;;;;;3.97;3.67;;;23.60;29.30;;;;;;10469886;28;20602;-75
2023/07/18 01:12:38;;;;;;;3.80;3.50;;;23.60;29.10;;;;;;10468582;28;20371;-76
2023/07/18 01:17:46;;;;;;;3.50;3.20;;;23.60;29.00;;;;;;10470585;28;20880;-75
2023/07/18 01:22:53;;;;;;;4.30;3.83;;;23.60;29.60;;;;;;10465042;28;20228;-75
2023/07/18 01:27:59;;;;;;;3.53;3.27;;;23.60;29.30;;;;;;10465667;28;20246;-76
2023/07/18 01:33:02;;;;;;;4.13;3.73;;;23.60;29.00;;;;;;10466960;28;20237;-75
2023/07/18 01:38:07;;;;;;;3.33;3.00;;;23.50;28.90;;;;;;10460512;28;20241;-75
2023/07/18 01:43:10;;;;;;;4.37;3.87;;;23.40;29.30;;;;;;10465007;28;20310;-76
2023/07/18 01:48:14;;;;;;;3.73;3.37;;;23.30;29.30;;;;;;10466733;28;20441;-75
2023/07/18 01:53:18;;;;;;;4.30;3.90;;;23.20;29.20;;;;;;10464607;28;20254;-74
2023/07/18 01:58:22;;;;;;;3.97;3.67;;;23.10;29.60;;;;;;10466530;28;20688;-76
2023/07/18 02:03:25;;;;;;;3.47;3.17;;;22.90;29.40;;;;;;10465475;28;20224;-75
2023/07/18 02:08:29;;;;;;;4.00;3.20;;;22.80;29.70;;;;;;10463580;28;20274;-76
2023/07/18 02:13:33;;;;;;;3.80;3.50;;;22.80;30.20;;;;;;10467526;28;20228;-77
2023/07/18 02:18:36;;;;;;;3.90;3.60;;;22.80;30.10;;;;;;10467889;28;20220;-77
2023/07/18 02:23:41;;;;;;;4.20;3.43;;;22.80;30.20;;;;;;10465634;28;20231;-77
2023/07/18 02:28:44;;;;;;;3.60;3.30;;;22.80;30.90;;;;;;10472733;28;20231;-76
2023/07/18 02:33:47;;;;;;;3.97;3.63;;;22.80;30.20;;;;;;10482318;28;20775;-77
2023/07/18 02:38:52;;;;;;;3.67;3.33;;;22.80;30.30;;;;;;10479844;28;20315;-77
2023/07/18 02:43:55;;;;;;;5.63;3.57;;;22.80;30.60;;;;;;10466519;28;20243;-77
2023/07/18 02:48:58;;;;;;;3.60;3.30;;;22.80;30.20;;;;;;10471679;28;20664;-76
2023/07/18 02:54:03;;;;;;;4.00;3.60;;;22.70;30.10;;;;;;10470763;28;20323;-77
2023/07/18 02:59:07;;;;;;;3.20;2.90;;;22.70;30.60;;;;;;10472349;28;20312;-76
2023/07/18 03:04:10;;;;;;;3.60;3.33;;;22.60;30.20;;;;;;10473833;28;20315;-76
2023/07/18 03:09:17;;;;;;;3.70;3.40;;;22.60;30.40;;;;;;10475761;28;20328;-77
2023/07/18 03:14:20;;;;;;;3.73;3.40;;;22.60;30.60;;;;;;10474080;28;20305;-77
2023/07/18 03:19:24;;;;;;;3.37;3.07;;;22.40;30.40;;;;;;10474123;28;20815;-77
2023/07/18 03:24:28;;;;;;;3.53;3.20;;;22.40;30.50;;;;;;10479892;28;20828;-77
2023/07/18 03:29:32;;;;;;;3.23;2.93;;;22.30;30.90;;;;;;10483928;28;20228;-77
2023/07/18 03:34:35;;;;;;;4.57;3.30;;;22.30;30.60;;;;;;10469995;28;20239;-77
2023/07/18 03:39:40;;;;;;;3.60;3.30;;;22.30;30.80;;;;;;10469736;28;20315;-77
2023/07/18 03:44:43;;;;;;;3.93;3.53;;;22.20;31.00;;;;;;10460123;28;20263;-77
2023/07/18 03:49:46;;;;;;;3.57;3.23;;;22.00;30.80;;;;;;10470304;28;20778;-77
2023/07/18 03:54:51;;;;;;;4.37;3.97;;;21.90;31.10;;;;;;10471086;28;20320;-77
2023/07/18 03:59:54;;;;;;;4.17;3.77;;;21.80;31.80;;;;;;10464431;28;20776;-76
2023/07/18 04:04:57;;;;;;;4.03;3.73;;;21.80;31.60;;;;;;10468900;28;20252;-77
2023/07/18 04:10:02;;;;;;;5.37;4.17;;;21.80;31.80;;;;;;10468429;28;20233;-76
2023/07/18 04:15:07;;;;;;;5.30;4.27;;;21.80;32.10;;;;;;10463462;28;20737;-77
2023/07/18 04:20:11;;;;;;;5.33;4.00;;;21.70;31.90;;;;;;10462939;28;20638;-76
2023/07/18 04:25:16;;;;;;;4.23;3.60;;;21.50;31.70;;;;;;10462735;28;20273;-77
2023/07/18 04:30:19;;;;;;;4.37;3.97;;;21.40;32.20;;;;;;10452852;28;20236;-74
2023/07/18 04:35:23;;;;;;;4.37;3.40;;;21.40;32.10;;;;;;10453702;28;20235;-75
2023/07/18 04:40:27;;;;;;;4.53;3.83;;;21.40;32.20;;;;;;10448189;28;20224;-75
2023/07/18 04:45:32;;;;;;;4.50;4.10;;;21.50;32.90;;;;;;10456989;28;20303;-75
2023/07/18 04:50:36;;;;;;;5.83;4.27;;;21.50;32.80;;;;;;10453584;28;20257;-75
2023/07/18 04:55:41;;;;;;;4.30;3.73;;;21.50;32.70;;;;;;10467549;28;20620;-74
2023/07/18 05:00:44;;;;;;;4.90;4.37;;;21.40;33.20;;;;;;10478389;28;20229;-73
2023/07/18 05:05:48;;;;;;;4.33;3.93;;;21.40;33.10;;;;;;10478990;28;20228;-74
2023/07/18 05:10:52;;;;;;;4.07;3.77;;;21.40;33.30;;;;;;10474229;28;20315;-74
2023/07/18 05:15:59;;;;;;;4.80;4.40;;;21.40;33.80;;;;;;10481261;28;20224;-74
2023/07/18 05:21:03;;;;;;;4.30;3.90;;;21.50;33.70;;;;;;10477039;28;20221;-74
2023/07/18 05:26:10;;;;;;;5.43;4.93;;;21.50;34.10;;;;;;10470601;28;20738;-73
2023/07/18 05:31:14;;;;;;;4.40;4.00;;;21.50;34.40;;;;;;10480704;28;20216;-73
2023/07/18 05:36:17;;;;;;;4.83;4.30;;;21.60;34.00;;;;;;10489358;28;20303;-74
2023/07/18 05:41:22;;;;;;;5.70;4.20;;;21.80;34.30;;;;;;10472957;28;20226;-75
2023/07/18 05:46:25;;;;;;;5.13;4.63;;;21.90;34.60;;;;;;10467175;28;20230;-75
2023/07/18 05:51:31;;;;;;;5.27;4.10;;;22.00;34.10;;;;;;10456246;28;20228;-75
2023/07/18 05:56:35;;;;;;;4.97;4.20;;;22.20;34.10;;;;;;10457871;28;20229;-76
2023/07/18 06:01:39;;;;;;;6.00;4.20;;;22.40;34.50;;;;;;10465278;28;20266;-75
2023/07/18 06:06:42;;;;;;;4.77;4.37;;;22.60;34.20;;;;;;10486273;28;20239;-75
2023/07/18 06:11:46;;;;;;;4.17;3.87;;;22.80;33.90;;;;;;10489856;28;20306;-75
2023/07/18 06:16:50;;;;;;;4.40;4.10;;;22.90;33.80;;;;;;10491003;28;20731;-73
2023/07/18 06:21:54;;;;;;;4.20;3.70;;;23.10;33.80;;;;;;10489430;28;20311;-75
2023/07/18 06:26:59;;;;;;;5.43;4.20;;;23.30;33.70;;;;;;10488359;28;20231;-76
2023/07/18 06:32:05;;;;;;;5.87;4.13;;;23.40;33.90;;;;;;10482790;28;20224;-78
2023/07/18 06:37:08;;;;;;;5.90;4.47;;;23.60;33.70;;;;;;10469404;28;20239;-77
2023/07/18 06:42:15;;;;;;;4.60;4.17;;;23.70;33.80;;;;;;10477223;28;20227;-77
2023/07/18 06:47:19;;;;;;;4.60;4.20;;;23.80;33.70;;;;;;10472850;28;20232;-77
2023/07/18 06:52:23;;;;;;;4.40;4.00;;;24.00;33.40;;;;;;10474998;28;20251;-79
2023/07/18 06:57:28;;;;;;;4.53;3.73;;;24.10;33.30;;;;;;10490398;28;20239;-79
2023/07/18 07:02:33;;;;;;;3.90;3.47;;;24.20;32.60;;;;;;10487185;28;20614;-80
2023/07/18 07:07:36;;;;;;;4.63;3.40;;;24.40;32.40;;;;;;10483761;28;20228;-79
2023/07/18 07:12:42;;;;;;;3.73;3.03;;;24.50;31.70;;;;;;10482357;28;20224;-79
2023/07/18 07:17:46;;;;;;;3.70;3.27;;;24.70;30.80;;;;;;10480676;28;20229;-79
2023/07/18 07:22:51;;;;;;;3.93;3.20;;;24.90;30.70;;;;;;10482122;28;20235;-79
2023/07/18 07:27:56;;;;;;;3.17;2.87;;;25.00;30.50;;;;;;10490464;28;20233;-79
2023/07/18 07:32:59;;;;;;;4.93;2.90;;;25.20;30.10;;;;;;10482042;28;20237;-76
2023/07/18 07:38:02;;;;;;;4.30;3.00;;;25.30;29.70;;;;;;10460384;28;20942;-75
2023/07/18 07:43:07;;;;;;;3.93;3.00;;;25.50;29.00;;;;;;10465307;28;20242;-75
2023/07/18 07:48:10;;;;;;;3.40;2.80;;;25.60;29.00;;;;;;10465728;28;20327;-76
2023/07/18 07:53:13;;;;;;;2.90;2.70;;;25.70;29.10;;;;;;10467319;28;20228;-75
2023/07/18 07:58:18;;;;;;;4.10;2.80;;;25.90;29.10;;;;;;10458531;28;21009;-75
2023/07/18 08:03:21;;;;;;;3.30;3.00;;;26.00;29.20;;;;;;10461542;28;20755;-75
2023/07/18 08:08:25;;;;;;;3.13;2.83;;;26.30;29.30;;;;;;10459028;28;20335;-75
2023/07/18 08:13:30;;;;;;;2.97;2.50;;;26.40;29.20;;;;;;10464373;28;20236;-75
2023/07/18 08:18:34;;;;;;;2.63;2.43;;;26.60;28.20;;;;;;10461476;28;20224;-75
2023/07/18 08:23:37;;;;;;;4.40;2.83;;;26.80;28.80;;;;;;10461743;28;20800;-75
2023/07/18 08:28:41;;;;;;;2.80;2.60;;;27.00;28.60;;;;;;10462363;28;20730;-75
2023/07/18 08:33:46;;;;;;;2.90;2.57;;;27.30;27.50;;;;;;10464840;28;20613;-75
2023/07/18 08:38:50;;;;;;;2.40;2.20;;;27.50;27.60;;;;;;10461343;28;20230;-75
2023/07/18 08:43:56;;;;;;;2.90;2.63;;;27.70;27.10;;;;;;10460722;28;20244;-75
2023/07/18 08:48:59;;;;;;;2.67;2.47;;;28.00;26.20;;;;;;10459707;28;20247;-75
2023/07/18 08:54:02;;;;;;;2.80;2.57;;;28.20;26.50;;;;;;10457424;28;20229;-77
2023/07/18 08:59:08;;;;;;;3.17;2.37;;;28.40;26.40;;;;;;10468791;28;20229;-78
2023/07/18 09:04:12;;;;;;;2.90;2.70;;;28.60;25.40;;;;;;10469410;28;20243;-75
2023/07/18 09:09:17;;;;;;;2.60;2.40;;;28.80;25.50;;;;;;10482560;28;20726;-74
2023/07/18 09:14:26;;;;;;;2.67;2.40;;;29.00;25.20;;;;;;10481572;28;20752;-75
2023/07/18 09:19:40;;;;;;;3.10;2.80;;;29.10;24.00;;;;;;10483801;28;20224;-75
2023/07/18 09:24:43;;;;;;;2.80;2.60;;;29.30;23.60;;;;;;10482219;28;20228;-75
2023/07/18 09:29:52;;;;;;;3.30;3.00;;;29.50;24.50;;;;;;10488613;28;20256;-75
2023/07/18 09:34:56;;;;;;;2.87;2.60;;;29.80;23.90;;;;;;10478156;28;20264;-75
2023/07/18 09:40:00;;;;;;;3.37;3.07;;;29.90;23.60;;;;;;10482243;28;20235;-74
2023/07/18 09:45:06;;;;;;;3.33;3.03;;;30.10;23.50;;;;;;10466205;28;20938;-75
2023/07/18 09:50:14;;;;;;;3.50;3.20;;;30.30;22.00;;;;;;10451745;28;20236;-75
2023/07/18 09:55:22;;;;;;;3.43;3.00;;;30.40;22.60;;;;;;10485393;28;21343;-74
2023/07/18 10:00:27;;;;;;;4.13;3.00;;;30.50;21.40;;;;;;10486232;28;20250;-74
2023/07/18 10:05:32;;;;;;;3.90;3.50;;;30.60;21.50;;;;;;10486470;28;20232;-75
2023/07/18 10:10:35;;;;;;;3.40;3.10;;;30.70;21.70;;;;;;10491780;28;20220;-75
2023/07/18 10:16:26;;;;;;;3.50;3.20;;;30.70;21.80;;;;;;10475041;28;20256;-75
2023/07/18 10:21:33;;;;;;;3.57;3.10;;;30.80;21.60;;;;;;10345582;28;20228;-74
2023/07/18 10:26:41;;;;;;;3.60;3.30;;;30.90;21.60;;;;;;10434604;28;20233;-75
2023/07/18 10:31:45;;;;;;;3.70;3.00;;;31.10;21.70;;;;;;10438914;28;20341;-75
2023/07/18 10:36:57;;;;;;;3.47;3.17;;;31.40;21.80;;;;;;10423753;28;20262;-75
2023/07/18 10:42:06;;;;;;;3.90;3.47;;;31.50;21.00;;;;;;10453178;28;20237;-76
2023/07/18 10:47:14;;;;;;;3.47;3.17;;;31.70;20.30;;;;;;10425037;28;20771;-74
2023/07/18 10:52:20;;;;;;;4.70;3.37;;;31.70;20.30;;;;;;10416432;28;21028;-74
2023/07/18 10:57:26;;;;;;;3.50;3.10;;;31.80;20.70;;;;;;10415342;28;20647;-75
2023/07/18 11:02:36;;;;;;;4.33;3.33;;;31.90;21.10;;;;;;10424952;28;20256;-78
2023/07/18 11:07:42;;;;;;;3.93;3.20;;;32.00;20.00;;;;;;10422720;28;20240;-78
2023/07/18 11:12:46;;;;;;;3.13;2.93;;;32.10;20.30;;;;;;10434884;28;20579;-79
2023/07/18 11:17:49;;;;;;;3.70;3.40;;;32.10;21.00;;;;;;10426232;28;20233;-76
2023/07/18 11:22:54;;;;;;;3.97;3.50;;;32.20;20.50;;;;;;10417315;28;20261;-77
2023/07/18 11:27:57;;;;;;;4.10;3.23;;;32.10;20.20;;;;;;10430701;28;20235;-76
2023/07/18 11:33:01;;;;;;;3.77;3.37;;;32.10;20.50;;;;;;10423301;28;20234;-76
2023/07/18 11:38:09;;;;;;;3.80;3.50;;;32.10;20.30;;;;;;10428761;28;20236;-77
2023/07/18 11:43:18;;;;;;;3.90;3.37;;;32.00;19.80;;;;;;10426827;28;20233;-76
2023/07/18 11:48:22;;;;;;;3.30;3.00;;;31.90;19.20;;;;;;10418990;28;21204;-76
2023/07/18 11:53:27;;;;;;;3.83;3.40;;;32.10;20.40;;;;;;10422046;28;20239;-77
2023/07/18 11:58:30;;;;;;;4.13;3.30;;;32.10;19.40;;;;;;10421393;28;20279;-76
2023/07/18 12:03:34;;;;;;;3.30;3.00;;;32.00;19.50;;;;;;10424365;28;20289;-77
2023/07/18 12:08:38;;;;;;;3.40;3.10;;;32.10;19.80;;;;;;10425055;28;20235;-76
2023/07/18 12:13:44;;;;;;;3.70;3.40;;;32.10;19.40;;;;;;10421710;28;20230;-77
2023/07/18 12:18:47;;;;;;;4.03;3.30;;;32.00;19.40;;;;;;10418380;28;20356;-76
2023/07/18 12:23:51;;;;;;;3.73;3.23;;;31.90;19.60;;;;;;10425066;28;20239;-77
2023/07/18 12:28:55;;;;;;;4.03;3.63;;;31.90;19.30;;;;;;10418771;28;20731;-76
2023/07/18 12:33:58;;;;;;;3.70;3.40;;;31.90;19.30;;;;;;10420359;28;20231;-77
2023/07/18 12:39:02;;;;;;;3.60;3.30;;;31.70;19.20;;;;;;10412151;28;20260;-76
2023/07/18 12:44:06;;;;;;;3.47;3.17;;;31.60;19.30;;;;;;10419247;28;20229;-76
2023/07/18 12:49:09;;;;;;;3.40;3.10;;;31.40;19.60;;;;;;10418054;28;20257;-77
2023/07/18 12:54:14;;;;;;;3.03;2.83;;;31.30;19.80;;;;;;10410770;28;20263;-76
2023/07/18 12:59:18;;;;;;;3.67;3.20;;;31.00;20.30;;;;;;10400356;28;20242;-77
2023/07/18 13:04:21;;;;;;;3.60;3.30;;;30.80;20.50;;;;;;10405612;28;20240;-75
2023/07/18 13:09:26;;;;;;;4.00;3.50;;;30.40;20.80;;;;;;10401706;28;20304;-75
2023/07/18 13:14:29;;;;;;;3.70;3.40;;;30.10;21.20;;;;;;10411106;28;20336;-75
2023/07/18 13:19:32;;;;;;;3.67;3.37;;;29.90;21.40;;;;;;10410513;28;20697;-77
2023/07/18 13:24:36;;;;;;;4.13;3.73;;;29.80;22.00;;;;;;10414552;28;20579;-74
2023/07/18 13:29:41;;;;;;;3.70;3.40;;;29.70;22.30;;;;;;10402419;28;20224;-74
2023/07/18 13:34:44;;;;;;;3.80;3.50;;;29.60;22.40;;;;;;10406928;28;20668;-75
2023/07/18 13:39:50;;;;;;;3.30;3.10;;;29.60;22.60;;;;;;10408050;28;20545;-74
2023/07/18 13:44:54;;;;;;;4.13;3.73;;;29.70;23.00;;;;;;10410208;28;20229;-75
2023/07/18 13:49:57;;;;;;;3.70;3.40;;;29.90;22.70;;;;;;10414409;28;20697;-75
2023/07/18 13:55:02;;;;;;;3.50;3.20;;;30.10;22.70;;;;;;10409930;28;20254;-75
2023/07/18 14:00:07;;;;;;;4.13;3.40;;;30.30;22.40;;;;;;10416951;28;20242;-74
2023/07/18 14:05:11;;;;;;;3.83;3.53;;;30.40;22.30;;;;;;10418320;28;20236;-75
2023/07/18 14:10:15;;;;;;;4.53;3.93;;;30.60;22.40;;;;;;10411697;28;20287;-75
2023/07/18 14:15:18;;;;;;;4.47;4.07;;;30.70;22.00;;;;;;10401715;28;20232;-75
2023/07/18 14:20:22;;;;;;;4.47;4.13;;;30.60;22.30;;;;;;10406723;28;20233;-74
2023/07/18 14:25:26;;;;;;;4.60;4.17;;;30.50;22.90;;;;;;10414974;28;20334;-74
2023/07/18 14:30:30;;;;;;;4.70;3.90;;;30.50;22.60;;;;;;10420870;28;20279;-74
2023/07/18 14:35:33;;;;;;;4.60;4.20;;;30.50;22.70;;;;;;10416821;28;20327;-73
2023/07/18 14:40:38;;;;;;;4.00;3.70;;;30.50;22.30;;;;;;10420961;28;21005;-74
2023/07/18 14:45:41;;;;;;;4.13;3.70;;;30.60;22.90;;;;;;10418573;28;20249;-75
2023/07/18 14:50:46;;;;;;;4.57;3.70;;;30.70;21.50;;;;;;10412351;28;20229;-74
2023/07/18 14:55:51;;;;;;;4.07;3.57;;;30.80;21.80;;;;;;10409404;28;20229;-75
2023/07/18 15:00:54;;;;;;;4.43;4.03;;;30.90;21.60;;;;;;10417791;28;20658;-74
2023/07/18 15:05:58;;;;;;;4.30;3.80;;;31.00;22.10;;;;;;10411972;28;20336;-76
2023/07/18 15:11:03;;;;;;;4.03;3.63;;;31.10;21.70;;;;;;10412638;28;20232;-74
2023/07/18 15:16:06;;;;;;;4.00;3.70;;;31.20;21.70;;;;;;10407984;28;20728;-73
2023/07/18 15:21:09;;;;;;;4.40;4.00;;;31.20;21.70;;;;;;10409606;28;20228;-73
2023/07/18 15:26:17;;;;;;;4.67;4.27;;;31.30;21.50;;;;;;10404449;28;20316;-74
2023/07/18 15:31:22;;;;;;;4.40;4.00;;;31.40;21.40;;;;;;10406392;28;20765;-74
2023/07/18 15:36:27;;;;;;;4.23;3.93;;;31.40;21.20;;;;;;10417610;28;20284;-74
2023/07/18 15:41:32;;;;;;;4.37;3.97;;;31.40;21.10;;;;;;10418893;28;20314;-73
2023/07/18 15:46:38;;;;;;;4.20;3.90;;;31.50;20.60;;;;;;10420160;28;20225;-73
2023/07/18 15:51:41;;;;;;;4.20;3.90;;;31.40;20.80;;;;;;10416142;28;20225;-74
2023/07/18 15:56:46;;;;;;;4.20;3.80;;;31.30;20.90;;;;;;10416665;28;20691;-73
2023/07/18 16:01:53;;;;;;;4.37;4.00;;;31.20;21.10;;;;;;10421471;28;20224;-74
2023/07/18 16:06:57;;;;;;;4.17;3.87;;;31.20;21.20;;;;;;10419861;28;20316;-73
2023/07/18 16:12:01;;;;;;;4.17;3.87;;;31.30;20.80;;;;;;10416854;28;20232;-73
2023/07/18 16:17:09;;;;;;;4.13;3.83;;;31.30;20.90;;;;;;10421966;28;20221;-73
2023/07/18 16:22:12;;;;;;;4.80;3.97;;;31.30;20.40;;;;;;10420078;28;20221;-73
2023/07/18 16:27:17;;;;;;;4.30;3.90;;;31.40;20.30;;;;;;10418987;28;20237;-73
2023/07/18 16:32:20;;;;;;;4.87;3.60;;;31.40;20.90;;;;;;10418584;28;20231;-73
2023/07/18 16:37:23;;;;;;;4.93;3.90;;;31.50;20.60;;;;;;10417247;28;20233;-73
2023/07/18 16:42:29;;;;;;;4.00;3.70;;;31.40;20.70;;;;;;10422843;28;20220;-73
2023/07/18 16:47:33;;;;;;;4.77;4.10;;;31.40;20.30;;;;;;10414351;28;20229;-73
2023/07/18 16:52:36;;;;;;;5.67;4.00;;;31.40;20.40;;;;;;10418630;28;20275;-73
2023/07/18 16:57:41;;;;;;;4.10;3.70;;;31.40;20.30;;;;;;10417680;28;20240;-73
2023/07/18 17:02:44;;;;;;;4.67;3.93;;;31.40;20.40;;;;;;10412136;28;20225;-73
2023/07/18 17:07:47;;;;;;;4.37;3.83;;;31.40;20.50;;;;;;10414284;28;20338;-73
2023/07/18 17:12:52;;;;;;;4.00;3.63;;;31.40;20.40;;;;;;10421934;28;20221;-73
2023/07/18 17:17:55;;;;;;;4.57;3.97;;;31.30;20.20;;;;;;10417090;28;20256;-73
2023/07/18 17:22:59;;;;;;;4.30;3.67;;;31.20;20.60;;;;;;10418282;28;20256;-73
2023/07/18 17:28:04;;;;;;;6.00;4.10;;;31.20;20.70;;;;;;10419584;28;20253;-73
2023/07/18 17:33:07;;;;;;;4.23;3.83;;;31.20;20.80;;;;;;10417522;28;20740;-73
2023/07/18 17:38:10;;;;;;;4.13;3.77;;;31.30;20.80;;;;;;10415050;28;20309;-73
2023/07/18 17:43:15;;;;;;;4.30;3.90;;;31.40;20.80;;;;;;10415272;28;20772;-73
2023/07/18 17:48:18;;;;;;;4.10;3.70;;;31.50;20.40;;;;;;10415736;28;20235;-73
2023/07/18 17:53:21;;;;;;;4.20;3.80;;;31.50;20.50;;;;;;10416752;28;20237;-74
2023/07/18 17:58:26;;;;;;;4.90;4.30;;;31.40;20.30;;;;;;10418551;28;20320;-73
2023/07/18 18:03:29;;;;;;;4.33;3.93;;;31.40;20.20;;;;;;10416701;28;20226;-74
2023/07/18 18:08:33;;;;;;;4.50;4.10;;;31.30;20.40;;;;;;10413860;28;20230;-74
2023/07/18 18:13:38;;;;;;;4.07;3.70;;;31.20;20.40;;;;;;10415996;28;20232;-74
2023/07/18 18:18:41;;;;;;;4.20;3.80;;;31.10;20.60;;;;;;10422283;28;20239;-74
2023/07/18 18:23:44;;;;;;;3.80;3.40;;;31.10;20.70;;;;;;10425375;28;20268;-73
2023/07/18 18:28:49;;;;;;;4.60;3.70;;;31.10;20.80;;;;;;10422610;28;20685;-74
2023/07/18 18:33:52;;;;;;;6.70;4.10;;;31.00;20.90;;;;;;10422741;28;20316;-74
2023/07/18 18:38:56;;;;;;;7.43;4.10;;;30.90;20.90;;;;;;10420251;28;20240;-74
2023/07/18 18:44:00;;;;;;;5.17;4.00;;;30.80;21.10;;;;;;10422300;28;20237;-73
2023/07/18 18:49:04;;;;;;;4.70;4.30;;;30.60;21.40;;;;;;10418458;28;20222;-73
2023/07/18 18:54:16;;;;;;;4.33;3.80;;;30.50;21.40;;;;;;10417331;28;20743;-72
2023/07/18 18:59:21;;;;;;;4.10;3.80;;;30.40;21.30;;;;;;10415712;28;20229;-73
2023/07/18 19:04:24;;;;;;;4.20;3.80;;;30.30;21.30;;;;;;10418565;28;20236;-73
2023/07/18 19:09:29;;;;;;;4.53;4.17;;;30.20;21.20;;;;;;10414153;28;20304;-74
2023/07/18 19:14:36;;;;;;;5.10;4.03;;;30.00;21.70;;;;;;10411907;28;20298;-75
2023/07/18 19:19:41;;;;;;;4.40;4.00;;;29.80;22.50;;;;;;10417220;28;20640;-74
2023/07/18 19:24:44;;;;;;;4.93;4.23;;;29.60;22.40;;;;;;10416534;28;20232;-75
2023/07/18 19:29:49;;;;;;;4.60;3.90;;;29.50;22.40;;;;;;10419811;28;20243;-73
2023/07/18 19:34:53;;;;;;;4.23;3.83;;;29.30;22.90;;;;;;10458734;28;20239;-75
2023/07/18 19:39:56;;;;;;;5.10;3.80;;;29.10;23.10;;;;;;10457357;28;20242;-74
2023/07/18 19:45:00;;;;;;;4.43;3.97;;;29.00;23.40;;;;;;10458652;28;20285;-75
2023/07/18 19:50:04;;;;;;;4.30;3.90;;;29.10;23.80;;;;;;10463307;28;20252;-74
2023/07/18 19:55:09;;;;;;;4.93;4.30;;;29.00;23.70;;;;;;10458275;28;20229;-74
2023/07/18 20:00:14;;;;;;;6.07;4.10;;;29.00;24.20;;;;;;10457949;28;20278;-74
2023/07/18 20:05:17;;;;;;;4.87;4.10;;;28.90;24.10;;;;;;10455633;28;20346;-75
2023/07/18 20:10:21;;;;;;;8.23;4.80;;;28.80;24.00;;;;;;10458960;28;20853;-75
2023/07/18 20:15:25;;;;;;;7.67;4.40;;;28.70;24.20;;;;;;10463759;28;20228;-75
2023/07/18 20:20:29;;;;;;;5.03;4.60;;;28.60;24.60;;;;;;10439409;28;20239;-74
2023/07/18 20:25:32;;;;;;;5.83;4.40;;;28.50;24.80;;;;;;10436295;28;20990;-73
2023/07/18 20:30:36;;;;;;;4.30;3.97;;;28.40;24.40;;;;;;10435708;28;20224;-74
2023/07/18 20:35:40;;;;;;;4.73;4.13;;;28.20;24.90;;;;;;10441796;28;20223;-74
2023/07/18 20:40:43;;;;;;;4.40;4.10;;;28.10;24.90;;;;;;10444920;28;20267;-73
2023/07/18 20:46:00;;;;;;;4.70;4.30;;;28.10;25.30;;;;;;10451583;28;20243;-74
2023/07/18 20:51:03;;;;;;;5.40;4.53;;;28.00;25.80;;;;;;10446765;28;20224;-74
2023/07/18 20:56:06;;;;;;;5.23;4.60;;;27.90;25.40;;;;;;10441368;28;20231;-74
2023/07/18 21:01:11;;;;;;;5.07;4.57;;;27.80;25.70;;;;;;10453937;28;20229;-74
2023/07/18 21:06:14;;;;;;;6.17;4.83;;;27.50;26.40;;;;;;10449151;28;20228;-74
2023/07/18 21:11:17;;;;;;;5.40;4.53;;;27.00;26.40;;;;;;10453762;28;20235;-74
2023/07/18 21:16:22;;;;;;;9.00;5.13;;;26.80;26.90;;;;;;10449647;28;20905;-75
2023/07/18 21:21:26;;;;;;;7.00;4.90;;;26.70;27.80;;;;;;10452940;28;20556;-74
2023/07/18 21:26:29;;;;;;;4.50;4.10;;;26.60;27.50;;;;;;10455833;28;20224;-74
2023/07/18 21:31:33;;;;;;;4.87;4.37;;;26.70;27.50;;;;;;10446681;28;20223;-75
2023/07/18 21:36:38;;;;;;;4.70;4.30;;;26.80;28.00;;;;;;10453275;28;20302;-74
2023/07/18 21:41:41;;;;;;;5.73;5.03;;;26.80;27.80;;;;;;10454817;28;20227;-74
2023/07/18 21:46:46;;;;;;;5.87;4.70;;;26.80;27.70;;;;;;10453199;28;20232;-73
2023/07/18 21:51:49;;;;;;;5.03;4.47;;;26.80;28.20;;;;;;10454555;28;20701;-73
2023/07/18 21:56:52;;;;;;;8.07;5.00;;;26.70;27.90;;;;;;10464718;28;21023;-74
2023/07/18 22:01:57;;;;;;;6.17;5.20;;;26.60;28.40;;;;;;10454362;28;20216;-74
2023/07/18 22:07:00;;;;;;;5.97;5.10;;;26.50;28.80;;;;;;10458713;28;20969;-76
2023/07/18 22:12:04;;;;;;;6.07;5.13;;;26.40;28.50;;;;;;10456067;28;20252;-75
2023/07/18 22:17:09;;;;;;;5.70;5.00;;;26.30;29.90;;;;;;10457707;28;20319;-75
2023/07/18 22:22:13;;;;;;;7.50;5.10;;;26.20;30.00;;;;;;10454737;28;20220;-75
2023/07/18 22:27:16;;;;;;;7.47;5.57;;;26.10;29.70;;;;;;10456127;28;20231;-75
2023/07/18 22:32:21;;;;;;;9.83;5.40;;;25.80;30.00;;;;;;10459207;28;20260;-75
2023/07/18 22:37:26;;;;;;;5.73;5.17;;;25.60;31.70;;;;;;10455961;28;20232;-75
2023/07/18 22:42:29;;;;;;;6.17;5.30;;;25.30;31.50;;;;;;10456014;28;20224;-75
2023/07/18 22:47:34;;;;;;;7.43;5.73;;;25.10;32.00;;;;;;10457360;28;20228;-74
2023/07/18 22:52:37;;;;;;;6.60;5.87;;;24.90;33.60;;;;;;10457653;28;20217;-74
2023/07/18 22:57:40;;;;;;;10.00;6.13;;;24.80;33.00;;;;;;10457357;28;20249;-74
2023/07/18 23:02:45;;;;;;;7.57;6.03;;;24.70;33.40;;;;;;10452298;28;20220;-74
2023/07/18 23:07:48;;;;;;;7.53;5.43;;;24.60;34.50;;;;;;10464473;28;20256;-74
2023/07/18 23:12:52;;;;;;;6.37;5.47;;;24.60;33.80;;;;;;10457208;28;20235;-74
2023/07/18 23:17:56;;;;;;;7.77;6.00;;;24.70;34.10;;;;;;10457178;28;20280;-75
2023/07/18 23:23:00;;;;;;;6.33;5.27;;;24.70;35.40;;;;;;10454820;28;20754;-74
2023/07/18 23:28:04;;;;;;;8.53;5.80;;;24.70;34.10;;;;;;10451739;28;20232;-74
2023/07/18 23:33:09;;;;;;;8.17;6.17;;;24.60;34.50;;;;;;10448958;28;20290;-74
2023/07/18 23:38:12;;;;;;;9.40;5.57;;;24.60;35.60;;;;;;10454510;28;20233;-74
2023/07/18 23:43:15;;;;;;;6.43;5.83;;;24.40;34.90;;;;;;10454367;28;20228;-74
2023/07/18 23:48:20;;;;;;;6.17;5.10;;;24.40;35.20;;;;;;10456227;28;20263;-74
2023/07/18 23:53:23;;;;;;;6.47;5.03;;;24.50;36.30;;;;;;10455171;28;21915;-74
2023/07/18 23:58:26;;;;;;;6.23;4.67;;;24.50;35.40;;;;;;10449906;28;20228;-74
